Time;durP1;ratioP1;P1;durP2;ratioP2;P2;SDS_P1;SDS_P2;PMS_P1;PMS_P2;Temp;Humidity;BMP_temperature;BMP_pressure;BME280_temperature;BME280_humidity;BME280_pressure;Samples;Min_cycle;Max_cycle;Signal;HPM_P1;HPM_P2
2023/02/22 00:00:41;;;;;;;;;55.33;45.00;;;;;10.66;63.40;101228.91;1999984;27;3608572;-74
2023/02/22 00:02:09;;;;;;;;;59.00;45.33;;;;;10.64;63.43;101226.31;1999062;28;3641901;-74
2023/02/22 00:03:23;;;;;;;;;50.67;40.33;;;;;10.64;63.19;101228.94;1996976;28;3614848;-74
2023/02/22 00:04:38;;;;;;;;;54.33;43.67;;;;;10.66;63.25;101224.53;1984972;28;3609617;-74
2023/02/22 00:05:53;;;;;;;;;55.67;45.00;;;;;10.65;63.14;101235.06;1991728;28;3595058;-74
2023/02/22 00:07:05;;;;;;;;;60.33;47.00;;;;;10.65;63.45;101228.03;2021557;28;3612730;-74
2023/02/22 00:08:17;;;;;;;;;56.67;46.00;;;;;10.66;63.39;101224.53;2001338;27;3603388;-74
2023/02/22 00:09:29;;;;;;;;;62.00;47.60;;;;;10.67;63.33;101228.00;2017041;27;3632536;-74
2023/02/22 00:10:42;;;;;;;;;56.00;45.60;;;;;10.67;63.29;101230.63;2023111;28;3603336;-74
2023/02/22 00:11:53;;;;;;;;;57.00;44.67;;;;;10.67;63.29;101225.38;1997236;28;3612730;-74
2023/02/22 00:13:08;;;;;;;;;60.33;47.00;;;;;10.67;63.35;101217.47;2015519;28;3624252;-74
2023/02/22 00:14:19;;;;;;;;;52.67;43.00;;;;;10.68;63.39;101220.09;1992908;28;3599229;-74
2023/02/22 00:15:32;;;;;;;;;62.20;48.80;;;;;10.67;63.55;101220.97;2041139;28;3619314;-74
2023/02/22 00:16:43;;;;;;;;;58.00;45.00;;;;;10.67;63.00;101215.72;2003605;28;2860633;-74
2023/02/22 00:17:55;;;;;;;;;57.20;46.20;;;;;10.69;63.17;101218.34;2022601;28;3609564;-74
2023/02/22 00:19:07;;;;;;;;;59.33;47.33;;;;;10.69;63.37;101215.69;1993815;28;3623159;-74
2023/02/22 00:20:22;;;;;;;;;52.33;43.67;;;;;10.69;63.38;101215.69;2005463;28;3607605;-74
2023/02/22 00:21:32;;;;;;;;;58.00;45.00;;;;;10.69;63.49;101207.81;2000420;27;2871078;-74
2023/02/22 00:22:46;;;;;;;;;54.00;43.00;;;;;10.70;63.45;101206.91;2016139;27;3602274;-74
2023/02/22 00:23:58;;;;;;;;;57.67;45.67;;;;;10.70;63.45;101209.53;2001874;27;3609585;-74
2023/02/22 00:25:11;;;;;;;;;60.00;46.40;;;;;10.71;63.40;101211.25;2011631;28;3615844;-74
2023/02/22 00:26:22;;;;;;;;;58.00;46.33;;;;;10.70;63.60;101206.91;1983500;28;3618969;-74
2023/02/22 00:27:35;;;;;;;;;60.80;47.20;;;;;10.71;63.25;101202.50;2018781;28;3610601;-74
2023/02/22 00:28:49;;;;;;;;;55.50;44.00;;;;;10.72;63.48;101204.25;2004122;28;2862851;-74
2023/02/22 00:29:59;;;;;;;;;59.50;46.00;;;;;10.71;63.57;101200.75;2001999;27;2876288;-74
2023/02/22 00:31:11;;;;;;;;;56.40;43.60;;;;;10.72;63.74;101198.97;2011828;28;3615841;-74
2023/02/22 00:32:23;;;;;;;;;61.20;47.60;;;;;10.71;63.57;101203.38;2018997;28;3616858;-74
2023/02/22 00:33:38;;;;;;;;;57.80;45.60;;;;;10.72;63.52;101202.44;2021242;28;3617900;-74
2023/02/22 00:34:53;;;;;;;;;59.50;48.00;;;;;10.73;63.06;101203.31;2009002;27;2862736;-74
2023/02/22 00:36:05;;;;;;;;;62.67;47.67;;;;;10.72;63.29;101210.34;1997296;27;3631435;-74
2023/02/22 00:37:16;;;;;;;;;61.20;47.80;;;;;10.73;63.42;101198.94;2011712;27;3626605;-74
2023/02/22 00:38:28;;;;;;;;;58.00;45.67;;;;;10.73;63.43;101198.06;2018388;28;3615179;-74
2023/02/22 00:39:40;;;;;;;;;57.00;46.00;;;;;10.75;63.58;101198.88;2014999;27;3613777;-74
2023/02/22 00:40:52;;;;;;;;;51.00;41.67;;;;;10.74;63.52;101192.75;2015377;28;3611713;-74
2023/02/22 00:42:04;;;;;;;;;59.33;46.33;;;;;10.76;63.52;101200.63;2013426;28;3621418;-74
2023/02/22 00:43:16;;;;;;;;;54.67;44.00;;;;;10.76;63.62;101200.63;2010129;28;3613768;-74
2023/02/22 00:44:28;;;;;;;;;58.33;48.00;;;;;10.75;63.54;101191.88;2007869;28;3611692;-74
2023/02/22 00:45:41;;;;;;;;;60.00;48.00;;;;;10.76;63.41;101193.59;2019289;28;3607870;-74
2023/02/22 00:46:51;;;;;;;;;62.00;48.00;;;;;10.77;63.53;101197.06;1999805;28;2864812;-74
2023/02/22 00:48:05;;;;;;;;;59.60;46.20;;;;;10.76;63.36;101193.59;2018516;28;3607486;-74
2023/02/22 00:49:16;;;;;;;;;61.50;48.00;;;;;10.77;63.44;101192.69;1995070;28;2880485;-74
2023/02/22 00:50:29;;;;;;;;;62.20;48.60;;;;;10.78;63.49;101185.66;2017355;28;3628335;-74
2023/02/22 00:51:40;;;;;;;;;64.00;49.50;;;;;10.77;63.61;101184.78;2001777;28;2879449;-74
2023/02/22 00:52:53;;;;;;;;;60.00;46.60;;;;;10.78;63.48;101186.53;2001751;28;3618940;-74
2023/02/22 00:54:04;;;;;;;;;56.00;46.00;;;;;10.78;63.40;101186.53;1989653;28;3595038;-74
2023/02/22 00:55:25;;;;;;;;;63.00;49.00;;;;;10.79;63.40;101190.88;2035651;28;3617910;-74
2023/02/22 00:56:36;;;;;;;;;57.33;46.67;;;;;10.79;63.72;101190.88;1994353;28;3620016;-74
2023/02/22 00:57:51;;;;;;;;;62.60;49.40;;;;;10.80;63.72;101189.97;2018986;27;3620001;-74
2023/02/22 00:59:03;;;;;;;;;59.00;47.50;;;;;10.81;63.46;101190.84;2000669;28;2875239;-74
2023/02/22 01:00:19;;;;;;;;;62.00;48.00;;;;;10.79;63.67;101185.59;2002100;28;2885632;-74
2023/02/22 01:01:30;;;;;;;;;61.50;48.00;;;;;10.80;63.67;101179.47;2000902;27;2875299;-74
2023/02/22 01:02:42;;;;;;;;;57.20;45.60;;;;;10.82;63.53;101183.81;2009370;27;3600203;-74
2023/02/22 01:03:53;;;;;;;;;62.50;48.00;;;;;10.81;63.53;101188.22;2025151;28;2874177;-74
2023/02/22 01:05:13;;;;;;;;;62.00;49.67;;;;;10.82;63.63;101186.44;2015644;28;3610647;-74
2023/02/22 01:06:26;;;;;;;;;59.60;47.20;;;;;10.82;63.68;101182.03;2016738;27;3617943;-74
2023/02/22 01:07:39;;;;;;;;;63.80;51.40;;;;;10.82;63.51;101176.78;2016200;28;3612707;-74
2023/02/22 01:08:49;;;;;;;;;60.50;46.50;;;;;10.81;63.53;101180.34;2008924;27;2870020;-74
2023/02/22 01:10:02;;;;;;;;;63.20;48.20;;;;;10.83;63.87;101180.28;2015932;27;3638766;-74
2023/02/22 01:11:15;;;;;;;;;61.00;48.60;;;;;10.83;63.70;101177.66;1999539;28;3611708;-74
2023/02/22 01:12:27;;;;;;;;;56.00;47.00;;;;;10.82;63.65;101176.78;1992572;28;3605395;-74
2023/02/22 01:13:39;;;;;;;;;61.67;49.33;;;;;10.82;63.71;101176.78;1998754;27;3608579;-74
2023/02/22 01:14:51;;;;;;;;;56.67;46.67;;;;;10.83;63.71;101173.25;2008157;28;3621125;-74
2023/02/22 01:16:07;;;;;;;;;56.80;45.60;;;;;10.83;63.57;101173.25;2021406;27;3620004;-74
2023/02/22 01:17:18;;;;;;;;;54.33;45.67;;;;;10.83;63.67;101177.66;1997280;28;3607841;-74
2023/02/22 01:18:30;;;;;;;;;59.00;46.40;;;;;10.82;63.70;101171.53;2044445;28;3618245;-74
2023/02/22 01:19:42;;;;;;;;;61.60;49.40;;;;;10.84;63.72;101176.75;2012819;28;3622579;-74
2023/02/22 01:20:54;;;;;;;;;58.67;46.33;;;;;10.83;63.83;101175.88;2015837;28;3607856;-74
2023/02/22 01:22:06;;;;;;;;;59.00;48.20;;;;;10.83;63.78;101178.53;2014949;28;3601240;-74
2023/02/22 01:23:18;;;;;;;;;65.80;49.40;;;;;10.84;63.65;101176.75;1998179;28;3631602;-74
2023/02/22 01:24:30;;;;;;;;;63.00;48.40;;;;;10.84;63.99;101174.13;2018606;28;3627316;-74
2023/02/22 01:25:42;;;;;;;;;63.20;48.60;;;;;10.84;63.70;101179.38;2021412;28;3607553;-74
2023/02/22 01:26:54;;;;;;;;;62.00;48.00;;;;;10.83;63.77;101173.25;2013696;28;3624184;-74
2023/02/22 01:28:06;;;;;;;;;61.00;47.20;;;;;10.84;63.69;101179.38;2011670;28;3623100;-74
2023/02/22 01:29:20;;;;;;;;;61.00;48.00;;;;;10.84;63.86;101172.34;2010230;28;3621405;-74
2023/02/22 01:30:32;;;;;;;;;56.50;46.00;;;;;10.83;64.16;101173.25;2002128;28;2866903;-74
2023/02/22 01:31:53;;;;;;;;;57.67;47.67;;;;;10.86;63.82;101174.94;2000722;27;3604358;-74
2023/02/22 01:33:07;;;;;;;;;58.33;46.00;;;;;10.85;63.69;101163.56;1999782;28;3615847;-74
2023/02/22 01:34:17;;;;;;;;;60.00;46.00;;;;;10.85;63.86;101166.19;1994836;27;2875272;-74
2023/02/22 01:35:32;;;;;;;;;58.80;46.40;;;;;10.87;63.74;101174.03;2003369;28;3630427;-74
2023/02/22 01:36:43;;;;;;;;;56.00;46.00;;;;;10.87;63.78;101174.03;1999942;28;2868955;-74
2023/02/22 01:37:56;;;;;;;;;60.00;47.00;;;;;10.87;63.57;101174.03;2016379;28;3623178;-74
2023/02/22 01:39:09;;;;;;;;;57.00;44.00;;;;;10.87;63.72;101168.75;2000067;28;3622109;-74
2023/02/22 01:40:29;;;;;;;;;61.00;46.00;;;;;10.88;63.71;101170.50;1999089;28;2885703;-74
2023/02/22 01:41:40;;;;;;;;;60.00;47.00;;;;;10.88;63.59;101167.88;1993241;28;2871538;-74
2023/02/22 01:42:54;;;;;;;;;58.00;47.67;;;;;10.88;63.62;101162.59;2013700;28;3623130;-74
2023/02/22 01:44:35;;;;;;;;;62.33;49.33;;;;;10.89;63.69;101165.19;1996798;28;3618405;-74
2023/02/22 01:45:53;;;;;;;;;55.00;44.00;;;;;10.89;63.71;101162.56;1989950;28;2867423;-74
2023/02/22 01:47:05;;;;;;;;;59.50;46.50;;;;;10.89;63.60;101167.81;1994445;28;2881540;-74
2023/02/22 01:48:39;;;;;;;;;58.00;48.00;;;;;10.91;63.69;101173.06;2001126;28;2874219;-74
2023/02/22 01:49:51;;;;;;;;;59.67;46.33;;;;;10.90;63.96;101171.31;1990897;28;3612142;-74
2023/02/22 01:51:09;;;;;;;;;61.33;46.67;;;;;10.92;63.48;101166.88;2006941;28;3628358;-74
2023/02/22 01:52:21;;;;;;;;;62.00;49.50;;;;;10.91;63.58;101170.44;2002722;27;2880477;-74
2023/02/22 01:53:37;;;;;;;;;59.67;47.00;;;;;10.91;63.69;101162.53;2006733;27;3609650;-74
2023/02/22 01:54:57;;;;;;;;;62.50;50.50;;;;;10.91;63.67;101167.78;1992527;28;2877347;-74
2023/02/22 01:56:09;;;;;;;;;57.33;46.00;;;;;10.92;63.98;101161.63;1991607;28;3597507;-74
2023/02/22 01:57:28;;;;;;;;;54.67;44.33;;;;;10.94;63.57;101156.31;2022995;28;3616905;-74
2023/02/22 01:58:43;;;;;;;;;61.00;46.67;;;;;10.93;63.71;101158.09;1999527;27;3627338;-74
2023/02/22 02:00:12;;;;;;;;;55.00;46.00;;;;;10.94;63.59;101165.06;2000815;28;2850280;-74
2023/02/22 02:01:24;;;;;;;;;58.00;46.00;;;;;10.95;63.47;101151.00;2023378;28;2868000;-74
2023/02/22 02:02:42;;;;;;;;;56.00;44.50;;;;;10.96;63.71;101162.41;2000672;28;2864844;-74
2023/02/22 02:03:58;;;;;;;;;62.00;47.00;;;;;10.97;63.68;101164.09;1997477;27;2882544;-74
2023/02/22 02:05:09;;;;;;;;;57.00;44.00;;;;;10.97;63.36;101161.47;1993205;28;2858606;-74
2023/02/22 02:06:21;;;;;;;;;57.40;46.00;;;;;10.97;63.63;101164.97;2003980;28;3594327;-74
2023/02/22 02:07:36;;;;;;;;;58.67;45.33;;;;;10.97;63.42;101159.72;2039375;28;3625253;-74
2023/02/22 02:08:52;;;;;;;;;57.00;46.00;;;;;10.98;63.59;101158.81;1992992;28;2857556;-74
2023/02/22 02:10:07;;;;;;;;;57.50;46.00;;;;;10.99;63.42;101152.66;1992040;28;2860665;-74
2023/02/22 02:11:21;;;;;;;;;57.33;46.00;;;;;10.99;63.39;101151.78;1990563;28;3604407;-74
2023/02/22 02:12:35;;;;;;;;;58.00;45.50;;;;;11.00;63.60;101156.16;2000131;28;2873169;-74
2023/02/22 02:13:49;;;;;;;;;57.00;47.00;;;;;11.00;63.52;101156.16;2001286;27;2871093;-74
2023/02/22 02:15:18;;;;;;;;;57.50;46.00;;;;;11.00;63.46;101167.53;1991542;28;2856530;-74
2023/02/22 02:16:44;;;;;;;;;59.33;46.00;;;;;11.00;63.42;101159.63;1990843;28;3627344;-74
2023/02/22 02:17:59;;;;;;;;;56.00;46.00;;;;;10.99;63.43;101159.66;1992394;28;3601256;-74
2023/02/22 02:19:53;;;;;;;;;54.33;44.67;;;;;10.99;63.39;101152.66;1991530;28;3616229;-74
2023/02/22 02:21:30;;;;;;;;;55.67;45.00;;;;;11.00;63.54;101167.53;1998292;28;3609597;-74
2023/02/22 02:22:56;;;;;;;;;52.50;43.00;;;;;10.98;63.29;101161.47;1999549;28;2858606;-74
2023/02/22 02:24:23;;;;;;;;;52.33;42.67;;;;;10.97;63.31;101154.47;1993463;28;3601627;-74
2023/02/22 02:25:55;;;;;;;;;55.33;45.00;;;;;10.97;63.33;101154.47;1990724;28;3622149;-74
2023/02/22 02:27:18;;;;;;;;;60.00;47.00;;;;;10.97;63.53;101153.59;1999914;28;3623139;-74
2023/02/22 02:29:00;;;;;;;;;56.67;46.33;;;;;10.96;63.43;101146.63;2000714;27;3602328;-74
2023/02/22 02:30:42;;;;;;;;;56.00;44.00;;;;;10.95;63.52;101151.00;2000076;28;2863822;-74
2023/02/22 02:32:12;;;;;;;;;58.00;44.00;;;;;10.95;63.42;101155.41;1991267;28;3629421;-74
2023/02/22 02:33:38;;;;;;;;;58.00;47.33;;;;;10.94;63.39;101143.19;1992117;27;3609633;-74
2023/02/22 02:35:12;;;;;;;;;57.33;46.00;;;;;10.93;63.44;101138.81;1998862;28;3607585;-74
2023/02/22 02:36:32;;;;;;;;;60.67;47.67;;;;;10.92;63.56;101137.94;1999345;27;3624240;-74
2023/02/22 02:38:15;;;;;;;;;55.33;44.00;;;;;10.93;63.47;101136.19;1999358;27;3617943;-74
2023/02/22 02:39:35;;;;;;;;;54.00;44.33;;;;;10.93;63.36;101136.19;1998887;28;3605436;-74
2023/02/22 02:41:15;;;;;;;;;56.33;44.00;;;;;10.94;63.39;101135.28;1998567;28;3600220;-74
2023/02/22 02:42:36;;;;;;;;;52.67;43.00;;;;;10.94;63.31;101132.66;2010937;28;3613800;-74
2023/02/22 02:43:59;;;;;;;;;56.00;45.00;;;;;10.93;63.35;101134.41;1997039;28;2877351;-74
2023/02/22 02:45:27;;;;;;;;;57.50;46.00;;;;;10.92;63.55;101124.78;1996230;28;2861730;-74
2023/02/22 02:46:52;;;;;;;;;58.67;46.00;;;;;10.93;63.41;101134.41;2006357;27;3608555;-74
2023/02/22 02:48:08;;;;;;;;;57.67;45.67;;;;;10.92;63.41;101124.78;1992507;28;3608640;-74
2023/02/22 02:49:26;;;;;;;;;62.00;46.50;;;;;10.93;63.29;101128.28;1998670;28;2885710;-74
2023/02/22 02:50:47;;;;;;;;;53.00;44.00;;;;;10.92;63.47;101130.06;2000387;28;3592951;-74
2023/02/22 02:52:01;;;;;;;;;61.33;49.67;;;;;10.90;63.64;101126.59;2023332;27;3612745;-74
2023/02/22 02:53:20;;;;;;;;;53.33;43.00;;;;;10.90;63.42;101127.47;1999893;28;3609614;-74
2023/02/22 02:54:33;;;;;;;;;57.00;46.67;;;;;10.91;63.30;101128.34;1991544;28;3606493;-74
2023/02/22 02:55:44;;;;;;;;;60.67;46.33;;;;;10.89;63.44;101109.97;1991518;28;3629380;-74
2023/02/22 02:56:57;;;;;;;;;44.80;32.80;;;;;10.90;63.53;101122.22;2018138;28;3611159;-74
2023/02/22 02:58:20;;;;;;;;;59.00;47.67;;;;;10.90;63.45;101121.34;1996458;28;3611693;-74
2023/02/22 02:59:36;;;;;;;;;57.00;44.50;;;;;10.88;63.38;101118.78;1999548;28;2875302;-74
2023/02/22 03:00:51;;;;;;;;;52.50;43.00;;;;;10.87;63.83;101122.28;2000307;27;2863794;-74
2023/02/22 03:02:25;;;;;;;;;51.33;42.67;;;;;10.87;63.40;101117.03;1998755;28;3593000;-74
2023/02/22 03:03:36;;;;;;;;;56.67;45.33;;;;;10.88;63.43;101115.28;2020062;28;3617936;-74
2023/02/22 03:04:59;;;;;;;;;55.20;39.00;;;;;10.86;63.58;101114.47;1997852;28;2863763;-74
2023/02/22 03:06:33;;;;;;;;;57.33;45.00;;;;;10.86;63.42;101117.09;2023538;28;3633611;-74
2023/02/22 03:07:49;;;;;;;;;60.00;47.00;;;;;10.85;63.28;101117.97;1996247;28;2875264;-74
2023/02/22 03:09:34;;;;;;;;;56.67;45.33;;;;;10.83;63.58;101114.53;1998220;28;3609627;-74
2023/02/22 03:11:02;;;;;;;;;50.00;40.50;;;;;10.82;63.62;101112.81;1999790;28;2839877;-74
2023/02/22 03:12:48;;;;;;;;;58.33;47.67;;;;;10.80;63.65;101113.72;2023544;27;3609601;-74
2023/02/22 03:14:26;;;;;;;;;58.33;45.33;;;;;10.80;63.56;101113.72;1988836;27;3633582;-74
2023/02/22 03:15:50;;;;;;;;;56.67;45.67;;;;;10.80;63.80;101111.09;2000514;27;3622093;-74
2023/02/22 03:17:15;;;;;;;;;56.00;45.00;;;;;10.79;63.66;101111.97;1999970;27;3611785;-74
2023/02/22 03:18:47;;;;;;;;;57.00;43.00;;;;;10.79;63.65;101114.63;1993920;28;3636688;-74
2023/02/22 03:20:30;;;;;;;;;60.33;45.00;;;;;10.79;63.84;101113.78;1999862;27;3625222;-74
2023/02/22 03:21:53;;;;;;;;;56.00;42.67;;;;;10.79;63.78;101119.03;2000993;28;3599210;-74
2023/02/22 03:23:36;;;;;;;;;58.00;45.00;;;;;10.78;63.76;101118.16;2002277;28;2868067;-74
2023/02/22 03:25:09;;;;;;;;;56.00;45.00;;;;;10.77;63.69;101116.44;2004264;27;3608576;-74
2023/02/22 03:26:29;;;;;;;;;57.33;46.00;;;;;10.77;63.77;101112.94;1995750;28;3617958;-74
2023/02/22 03:27:52;;;;;;;;;49.00;41.00;;;;;10.77;63.89;101115.56;1995763;28;3586685;-74
2023/02/22 03:29:06;;;;;;;;;59.50;45.00;;;;;10.75;63.79;101112.13;2024770;28;2878781;-74
2023/02/22 03:30:22;;;;;;;;;57.50;44.50;;;;;10.75;64.24;101107.72;2002011;27;2887760;-74
2023/02/22 03:31:42;;;;;;;;;55.00;45.00;;;;;10.75;64.07;101102.47;2000574;28;3594010;-74
2023/02/22 03:33:00;;;;;;;;;51.00;41.50;;;;;10.76;64.09;101103.34;2023184;28;2849239;-74
2023/02/22 03:34:18;;;;;;;;;53.00;44.00;;;;;10.74;63.89;101108.63;2017954;28;2861746;-74
2023/02/22 03:35:34;;;;;;;;;53.50;42.50;;;;;10.75;63.88;101106.84;1998527;28;2860776;-74
2023/02/22 03:36:54;;;;;;;;;52.50;44.00;;;;;10.74;63.98;101111.25;1993056;28;2860673;-74
2023/02/22 03:38:09;;;;;;;;;57.50;44.00;;;;;10.73;64.04;101103.41;1999517;28;2882004;-74
2023/02/22 03:39:29;;;;;;;;;57.00;46.00;;;;;10.71;63.87;101100.84;2001626;27;3609623;-74
2023/02/22 03:40:44;;;;;;;;;54.00;44.50;;;;;10.71;63.95;101100.84;2000627;28;2870113;-74
2023/02/22 03:42:15;;;;;;;;;57.50;46.50;;;;;10.70;64.14;101096.47;2001546;28;2866329;-74
2023/02/22 03:43:43;;;;;;;;;58.00;46.50;;;;;10.69;64.11;101100.03;1998905;28;2880460;-74
2023/02/22 03:44:59;;;;;;;;;56.50;44.50;;;;;10.67;64.05;101105.31;1995180;28;2872174;-74
2023/02/22 03:46:12;;;;;;;;;53.00;41.00;;;;;10.67;64.18;101105.31;2000726;27;3620480;-74
2023/02/22 03:47:41;;;;;;;;;55.67;45.67;;;;;10.66;64.00;101108.84;1995503;28;3611760;-74
2023/02/22 03:48:59;;;;;;;;;54.00;44.00;;;;;10.65;64.19;101103.63;2002290;28;2866959;-74
2023/02/22 03:50:16;;;;;;;;;52.00;44.00;;;;;10.65;64.13;101103.63;1998459;27;3602353;-74
2023/02/22 03:51:28;;;;;;;;;57.00;45.00;;;;;10.64;64.09;101104.53;1999469;27;3609597;-74
2023/02/22 03:52:42;;;;;;;;;55.00;43.00;;;;;10.64;64.02;101109.81;2015764;27;3604889;-74
2023/02/22 03:53:54;;;;;;;;;53.00;43.00;;;;;10.63;64.44;101106.31;1996685;27;3616925;-74
2023/02/22 03:55:09;;;;;;;;;58.33;45.00;;;;;10.63;64.11;101105.44;2003742;28;3629392;-74
2023/02/22 03:56:34;;;;;;;;;58.33;44.33;;;;;10.63;64.08;101097.53;2002159;27;3615904;-74
2023/02/22 03:57:53;;;;;;;;;52.00;44.00;;;;;10.63;64.27;101101.03;2003556;27;2848225;-74
2023/02/22 03:59:07;;;;;;;;;57.00;44.50;;;;;10.62;64.15;101096.69;2024941;28;2876293;-74
2023/02/22 04:00:22;;;;;;;;;56.00;44.00;;;;;10.62;64.34;101090.59;1999801;28;2879953;-74
2023/02/22 04:01:34;;;;;;;;;57.00;45.33;;;;;10.61;64.32;101094.97;2002530;27;3608568;-74
2023/02/22 04:02:45;;;;;;;;;52.50;43.50;;;;;10.60;64.39;101090.59;2001705;28;2856526;-74
2023/02/22 04:03:57;;;;;;;;;54.20;43.40;;;;;10.61;64.39;101088.84;2007586;28;3607486;-74
2023/02/22 04:05:09;;;;;;;;;54.40;43.80;;;;;10.60;64.46;101087.97;2042745;28;3613765;-74
2023/02/22 04:06:21;;;;;;;;;55.33;45.00;;;;;10.60;64.28;101084.47;2001059;27;3618320;-74
2023/02/22 04:07:32;;;;;;;;;52.67;44.00;;;;;10.59;64.18;101081.00;2006364;28;3604451;-74
2023/02/22 04:08:44;;;;;;;;;52.67;42.00;;;;;10.60;64.63;101090.59;2014137;27;3616936;-74
2023/02/22 04:09:56;;;;;;;;;55.00;44.00;;;;;10.60;64.43;101082.72;2014634;28;3612731;-74
2023/02/22 04:11:08;;;;;;;;;57.33;42.00;;;;;10.60;64.68;101082.72;2016020;27;3615852;-74
2023/02/22 04:12:20;;;;;;;;;53.20;43.00;;;;;10.61;64.81;101088.84;2021260;28;3609617;-74
2023/02/22 04:13:32;;;;;;;;;55.20;44.40;;;;;10.61;64.61;101089.72;2020137;28;3598127;-74
2023/02/22 04:14:44;;;;;;;;;53.00;43.00;;;;;10.62;64.37;101094.06;2007062;28;3590877;-74
2023/02/22 04:15:56;;;;;;;;;54.40;42.40;;;;;10.61;64.55;101081.81;2020951;28;3614793;-74
2023/02/22 04:17:09;;;;;;;;;55.60;44.00;;;;;10.61;64.42;101081.81;2019409;28;3609570;-74
2023/02/22 04:18:20;;;;;;;;;55.67;43.33;;;;;10.62;64.38;101091.41;2001559;28;3629429;-74
2023/02/22 04:19:34;;;;;;;;;55.60;43.80;;;;;10.63;64.61;101087.91;2020349;27;3615824;-74
2023/02/22 04:20:45;;;;;;;;;56.67;44.67;;;;;10.63;64.53;101081.78;1997429;28;3620040;-74
2023/02/22 04:21:57;;;;;;;;;51.67;41.00;;;;;10.64;64.44;101080.88;2013241;27;3609952;-74
2023/02/22 04:23:09;;;;;;;;;53.33;44.33;;;;;10.63;64.57;101077.38;2015944;27;3608567;-74
2023/02/22 04:24:21;;;;;;;;;54.60;42.80;;;;;10.63;64.88;101080.00;2011961;28;3605408;-74
2023/02/22 04:25:33;;;;;;;;;55.20;43.40;;;;;10.63;64.39;101071.25;2039226;28;3612709;-74
2023/02/22 04:26:45;;;;;;;;;49.33;40.00;;;;;10.64;64.48;101079.09;2009656;28;3593992;-74
2023/02/22 04:27:57;;;;;;;;;55.80;44.60;;;;;10.64;64.52;101076.47;2019537;27;3625251;-74
2023/02/22 04:29:09;;;;;;;;;51.80;41.40;;;;;10.64;64.56;101084.34;2021967;28;3596013;-74
2023/02/22 04:30:21;;;;;;;;;53.67;42.00;;;;;10.65;64.62;101077.34;2038407;28;3605946;-74
2023/02/22 04:31:33;;;;;;;;;55.80;43.80;;;;;10.65;64.49;101082.59;2008217;28;3627288;-74
2023/02/22 04:32:45;;;;;;;;;55.00;43.67;;;;;10.65;64.84;101079.97;2012466;28;3617969;-74
2023/02/22 04:33:57;;;;;;;;;54.80;44.40;;;;;10.64;64.54;101089.59;2017944;27;3598520;-74
2023/02/22 04:35:09;;;;;;;;;55.20;43.80;;;;;10.64;64.62;101083.50;2012841;28;3613759;-74
2023/02/22 04:36:21;;;;;;;;;55.67;44.33;;;;;10.64;64.42;101086.16;2006417;28;3612757;-74
2023/02/22 04:37:33;;;;;;;;;53.67;43.33;;;;;10.63;64.53;101087.03;2016042;28;3600251;-74
2023/02/22 04:38:45;;;;;;;;;52.67;43.33;;;;;10.63;64.44;101084.41;1999326;28;3595086;-74
2023/02/22 04:39:57;;;;;;;;;56.33;43.33;;;;;10.64;64.58;101094.03;2038367;27;3626267;-74
2023/02/22 04:41:09;;;;;;;;;50.33;42.67;;;;;10.63;64.46;101097.53;2015477;28;3578368;-74
2023/02/22 04:42:20;;;;;;;;;51.67;43.00;;;;;10.63;64.49;101092.28;2031501;28;3591250;-74
2023/02/22 04:43:32;;;;;;;;;51.67;41.00;;;;;10.62;64.46;101091.41;2035045;28;3598243;-74
2023/02/22 04:44:44;;;;;;;;;49.00;40.33;;;;;10.63;64.57;101093.16;2011718;28;3597133;-74
2023/02/22 04:45:56;;;;;;;;;50.33;41.33;;;;;10.62;64.43;101090.59;2009695;27;3601277;-74
2023/02/22 04:47:08;;;;;;;;;55.00;42.60;;;;;10.62;64.66;101095.84;2041935;28;3618936;-74
2023/02/22 04:48:20;;;;;;;;;52.67;44.33;;;;;10.62;64.75;101094.06;2014793;28;3593985;-74
2023/02/22 04:49:32;;;;;;;;;49.60;40.80;;;;;10.63;64.89;101094.91;2019923;28;3601690;-74
2023/02/22 04:50:44;;;;;;;;;52.80;43.20;;;;;10.63;64.77;101097.53;2013526;28;3593946;-74
2023/02/22 04:51:56;;;;;;;;;49.60;42.40;;;;;10.63;64.69;101098.41;2017040;28;3603312;-74
2023/02/22 04:53:08;;;;;;;;;54.80;43.20;;;;;10.64;64.95;101094.88;2019663;27;3609562;-74
2023/02/22 04:54:20;;;;;;;;;55.80;44.20;;;;;10.65;64.97;101095.72;2014028;28;3615819;-74
2023/02/22 04:55:33;;;;;;;;;56.00;44.00;;;;;10.65;65.08;101093.09;2015170;28;3619003;-74
2023/02/22 04:56:44;;;;;;;;;50.50;42.00;;;;;10.67;64.88;101093.91;2001371;27;2846117;-74
2023/02/22 04:57:55;;;;;;;;;52.50;41.50;;;;;10.67;65.01;101094.78;2022674;27;2854472;-74
2023/02/22 04:59:07;;;;;;;;;56.33;44.00;;;;;10.68;64.88;101096.53;1998237;27;3608564;-74
2023/02/22 05:00:20;;;;;;;;;54.40;42.00;;;;;10.69;65.03;101098.22;2017613;27;3626236;-74
2023/02/22 05:01:33;;;;;;;;;53.50;44.00;;;;;10.71;64.83;101100.84;1999061;28;2857517;-74
2023/02/22 05:02:44;;;;;;;;;55.67;43.67;;;;;10.75;64.96;101104.22;1993598;28;3616878;-74
2023/02/22 05:03:56;;;;;;;;;52.33;43.33;;;;;10.75;64.92;101098.97;2013163;28;3599193;-74
2023/02/22 05:05:08;;;;;;;;;53.80;43.40;;;;;10.75;65.10;101105.09;2043784;28;3608623;-74
2023/02/22 05:06:20;;;;;;;;;53.00;42.60;;;;;10.76;64.98;101098.94;2016859;27;3615149;-74
2023/02/22 05:07:32;;;;;;;;;55.20;44.00;;;;;10.78;64.91;101099.75;2019457;28;3604415;-74
2023/02/22 05:08:44;;;;;;;;;51.00;40.00;;;;;10.77;65.00;101100.66;2011408;28;3609617;-74
2023/02/22 05:09:56;;;;;;;;;55.00;43.20;;;;;10.80;64.95;101104.97;2020096;28;3609559;-74
2023/02/22 05:11:08;;;;;;;;;53.00;41.67;;;;;10.82;65.00;101091.75;2016326;27;3619019;-74
2023/02/22 05:12:20;;;;;;;;;51.00;41.60;;;;;10.82;65.01;101092.63;2012526;28;3604417;-74
2023/02/22 05:13:32;;;;;;;;;51.20;41.40;;;;;10.83;64.83;101088.25;2017310;28;3592946;-74
2023/02/22 05:14:44;;;;;;;;;52.60;43.00;;;;;10.84;64.85;101101.34;2044121;28;3593962;-74
2023/02/22 05:15:56;;;;;;;;;56.40;44.00;;;;;10.85;64.98;101096.94;2041358;28;3623115;-74
2023/02/22 05:17:08;;;;;;;;;52.20;43.20;;;;;10.86;64.83;101096.06;2020734;28;3605399;-74
2023/02/22 05:18:20;;;;;;;;;51.00;42.00;;;;;10.88;65.07;101095.09;2004071;28;3595049;-74
2023/02/22 05:19:32;;;;;;;;;54.80;43.40;;;;;10.89;64.95;101095.97;2018648;27;3606512;-74
2023/02/22 05:20:44;;;;;;;;;52.00;43.00;;;;;10.90;65.01;101092.41;2012454;28;3600250;-74
2023/02/22 05:21:56;;;;;;;;;54.67;44.00;;;;;10.91;64.94;101087.09;2014558;28;3612754;-74
2023/02/22 05:23:08;;;;;;;;;54.40;42.60;;;;;10.91;64.83;101087.09;2008198;27;3605455;-74
2023/02/22 05:24:20;;;;;;;;;52.67;43.33;;;;;10.93;64.83;101089.72;2012198;28;3599222;-74
2023/02/22 05:25:32;;;;;;;;;54.20;44.20;;;;;10.94;64.64;101085.31;2019569;28;3606836;-74
2023/02/22 05:26:44;;;;;;;;;52.40;42.40;;;;;10.94;64.68;101086.16;2007371;27;3614248;-74
2023/02/22 05:28:06;;;;;;;;;51.33;41.67;;;;;10.94;65.03;101075.63;1998547;27;3586714;-74
2023/02/22 05:29:17;;;;;;;;;48.50;40.00;;;;;10.95;64.70;101085.25;2024496;28;2856905;-74
2023/02/22 05:30:32;;;;;;;;;57.50;43.50;;;;;10.97;64.83;101079.94;1998160;28;2885629;-74
2023/02/22 05:31:43;;;;;;;;;52.67;42.00;;;;;10.96;64.62;101084.38;1994650;27;3603356;-74
2023/02/22 05:32:55;;;;;;;;;55.00;43.67;;;;;10.96;64.67;101079.09;2013050;28;3603443;-74
2023/02/22 05:34:07;;;;;;;;;55.33;44.67;;;;;10.97;64.69;101080.81;2010243;28;3620006;-74
2023/02/22 05:35:20;;;;;;;;;56.40;44.40;;;;;10.97;64.79;101075.56;2017137;27;3620002;-74
2023/02/22 05:36:32;;;;;;;;;56.67;44.00;;;;;10.97;64.59;101086.06;1998520;27;3619048;-74
2023/02/22 05:37:44;;;;;;;;;56.00;44.20;;;;;10.98;64.90;101087.81;2021471;28;3617334;-74
2023/02/22 05:38:56;;;;;;;;;58.00;45.00;;;;;10.98;64.50;101094.84;2000887;28;3625261;-74